Time;durP1;ratioP1;P1;durP2;ratioP2;P2;SDS_P1;SDS_P2;PMS_P1;PMS_P2;Temp;Humidity;BMP_temperature;BMP_pressure;BME280_temperature;BME280_humidity;BME280_pressure;Samples;Min_cycle;Max_cycle;Signal;HPM_P1;HPM_P2
2022/02/28 07:58:58;;;;;;;;;25.00;20.50;;;;;7.88;100.00;102478.75;6281515;22;47423;-92
2022/02/28 08:01:24;;;;;;;;;28.25;28.00;;;;;8.02;100.00;102478.97;6336217;22;45814;-95
2022/02/28 08:03:49;;;;;;;;;28.25;24.50;;;;;8.15;100.00;102488.78;6334768;22;45299;-92
2022/02/28 08:06:14;;;;;;;;;22.25;20.50;;;;;8.23;100.00;102478.94;6334376;22;45366;-91
2022/02/28 08:08:40;;;;;;;;;18.50;18.25;;;;;8.34;100.00;102475.53;6335189;22;45338;-91
2022/02/28 08:11:05;;;;;;;;;24.75;19.50;;;;;8.40;100.00;102482.94;6331694;22;45286;-92
2022/02/28 08:13:30;;;;;;;;;23.00;17.50;;;;;8.55;100.00;102487.63;6333572;22;45328;-92
2022/02/28 08:15:57;;;;;;;;;14.00;13.25;;;;;8.65;100.00;102489.34;6334531;22;45180;-91
2022/02/28 08:18:23;;;;;;;;;16.75;13.50;;;;;8.71;100.00;102476.75;6336960;22;45440;-92
2022/02/28 08:20:48;;;;;;;;;16.75;16.75;;;;;8.92;100.00;102484.50;6342062;22;45373;-92
2022/02/28 08:23:14;;;;;;;;;18.75;15.25;;;;;9.00;100.00;102474.63;6334689;22;45323;-92
2022/02/28 08:25:42;;;;;;;;;16.25;16.00;;;;;9.02;100.00;102460.84;6334211;22;45284;-93
2022/02/28 08:28:07;;;;;;;;;18.75;13.25;;;;;9.19;100.00;102474.41;6331884;22;47847;-93
2022/02/28 08:30:33;;;;;;;;;15.75;15.50;;;;;9.21;100.00;102461.41;6362560;22;45452;-92
2022/02/28 08:32:58;;;;;;;;;20.75;18.00;;;;;9.32;100.00;102470.13;6340852;22;45286;-93
2022/02/28 08:35:23;;;;;;;;;17.00;15.50;;;;;9.36;100.00;102466.94;6337057;22;45210;-93
2022/02/28 08:37:49;;;;;;;;;15.00;13.50;;;;;9.52;100.00;102482.16;6340552;22;47058;-92
2022/02/28 08:40:15;;;;;;;;;20.50;12.50;;;;;9.54;100.00;102477.94;6365273;22;45465;-92
2022/02/28 08:42:41;;;;;;;;;13.50;13.50;;;;;9.55;100.00;102474.53;6337231;22;45218;-92
2022/02/28 08:45:07;;;;;;;;;18.00;13.75;;;;;9.65;100.00;102484.03;6365078;22;45347;-92
2022/02/28 08:47:33;;;;;;;;;22.25;16.00;;;;;9.74;100.00;102480.28;6342481;22;46355;-92
2022/02/28 08:50:00;;;;;;;;;17.25;15.00;;;;;9.79;100.00;102478.94;6342095;22;45223;-93
2022/02/28 08:52:26;;;;;;;;;18.50;14.75;;;;;9.81;100.00;102473.03;6335510;22;45408;-92
2022/02/28 08:54:51;;;;;;;;;18.25;15.00;;;;;9.91;100.00;102473.72;6338683;22;45281;-93
2022/02/28 08:57:17;;;;;;;;;16.25;14.25;;;;;9.99;100.00;102475.22;6363940;22;46922;-93
2022/02/28 08:59:42;;;;;;;;;15.75;14.50;;;;;10.07;100.00;102478.41;6346510;22;45254;-92
2022/02/28 09:02:07;;;;;;;;;21.25;15.75;;;;;10.16;100.00;102480.81;6364701;22;45326;-93
2022/02/28 09:04:32;;;;;;;;;18.50;12.75;;;;;10.31;100.00;102488.03;6366861;22;45377;-93
2022/02/28 09:06:58;;;;;;;;;17.50;15.50;;;;;10.31;100.00;102477.53;6393603;22;48218;-92
2022/02/28 09:09:25;;;;;;;;;14.75;13.00;;;;;10.49;100.00;102465.72;6397377;22;45307;-93
2022/02/28 09:11:51;;;;;;;;;14.50;14.50;;;;;10.61;100.00;102476.28;6363614;22;45324;-92
2022/02/28 09:14:16;;;;;;;;;18.50;16.00;;;;;10.67;100.00;102467.03;6364832;22;45303;-93
2022/02/28 09:16:41;;;;;;;;;20.00;16.75;;;;;10.74;100.00;102482.44;6390754;22;47256;-92
2022/02/28 09:19:07;;;;;;;;;17.75;14.00;;;;;10.79;100.00;102464.38;6395185;22;45830;-92
2022/02/28 09:21:32;;;;;;;;;25.50;17.00;;;;;10.89;100.00;102482.63;6391442;22;45274;-92
2022/02/28 09:23:58;;;;;;;;;14.00;14.00;;;;;10.97;100.00;102491.06;6364480;22;45400;-93
2022/02/28 09:26:24;;;;;;;;;20.00;18.50;;;;;11.00;100.00;102491.28;6364601;22;47122;-92
2022/02/28 09:28:49;;;;;;;;;14.25;12.00;;;;;11.08;100.00;102499.69;6393461;22;45260;-93
2022/02/28 09:31:14;;;;;;;;;20.00;18.25;;;;;11.08;100.00;102476.03;6368182;22;45732;-93
2022/02/28 09:33:40;;;;;;;;;20.00;15.00;;;;;11.25;100.00;102500.91;6365062;22;45191;-93
2022/02/28 09:36:07;;;;;;;;;15.75;14.50;;;;;11.33;100.00;102511.06;6366317;22;45337;-93
2022/02/28 09:38:35;;;;;;;;;12.50;12.50;;;;;11.33;100.00;102501.47;6364177;22;45473;-93
2022/02/28 09:41:04;;;;;;;;;14.75;11.25;;;;;11.40;100.00;102498.44;6369247;22;45262;-93
2022/02/28 09:43:30;;;;;;;;;18.00;16.50;;;;;11.32;100.00;102482.94;6365846;22;45236;-93
2022/02/28 09:45:56;;;;;;;;;16.00;15.75;;;;;11.43;100.00;102503.00;6365466;22;47919;-93
2022/02/28 09:48:23;;;;;;;;;19.00;16.75;;;;;11.44;100.00;102502.19;6364566;22;45561;-92
2022/02/28 09:50:48;;;;;;;;;18.75;14.00;;;;;11.44;100.00;102502.19;6366997;22;45325;-92
2022/02/28 09:53:14;;;;;;;;;17.75;13.75;;;;;11.49;100.00;102498.16;6391042;22;45345;-93
2022/02/28 09:55:39;;;;;;;;;15.00;14.00;;;;;11.55;100.00;102492.44;6366688;22;45453;-92
2022/02/28 09:58:04;;;;;;;;;24.50;18.50;;;;;11.51;100.00;102490.41;6365296;22;45285;-92
2022/02/28 10:00:30;;;;;;;;;23.25;21.50;;;;;11.56;100.00;102485.47;6363489;22;45763;-92
2022/02/28 10:02:56;;;;;;;;;21.75;18.25;;;;;11.67;100.00;102496.72;6364644;22;45290;-92
2022/02/28 10:05:23;;;;;;;;;16.75;16.75;;;;;11.80;100.00;102503.75;6365450;22;47588;-92
2022/02/28 10:07:55;;;;;;;;;20.75;20.25;;;;;11.84;100.00;102500.50;6367565;22;45376;-93
2022/02/28 10:10:22;;;;;;;;;19.00;17.00;;;;;11.90;100.00;102505.28;6368843;22;45394;-92
2022/02/28 10:12:49;;;;;;;;;20.50;18.00;;;;;11.96;100.00;102508.31;6370778;22;45236;-92
2022/02/28 10:15:18;;;;;;;;;19.75;17.50;;;;;11.99;100.00;102503.28;6373867;22;45224;-92
2022/02/28 10:17:57;;;;;;;;;18.25;16.50;;;;;12.08;100.00;102516.16;6371035;22;45568;-92
2022/02/28 10:20:35;;;;;;;;;16.50;15.25;;;;;12.03;100.00;102507.03;6368806;22;45347;-92
2022/02/28 10:23:12;;;;;;;;;18.50;16.75;;;;;12.13;100.00;102512.16;6376588;22;45563;-93
2022/02/28 10:25:40;;;;;;;;;22.75;18.75;;;;;12.14;100.00;102510.41;6374613;22;47339;-93
2022/02/28 10:28:12;;;;;;;;;18.50;17.25;;;;;12.32;100.00;102515.09;6379183;22;45664;-91
2022/02/28 10:30:39;;;;;;;;;23.50;19.00;;;;;12.19;100.00;102501.09;6374190;22;45258;-92
2022/02/28 10:33:13;;;;;;;;;22.25;20.00;;;;;12.37;100.00;102519.84;6376371;22;45591;-93
2022/02/28 10:38:24;;;;;;;;;19.00;17.00;;;;;12.39;100.00;102515.63;6373389;22;45305;-93
2022/02/28 10:40:49;;;;;;;;;20.75;18.00;;;;;12.44;100.00;102508.03;6398190;22;45301;-93
2022/02/28 10:43:22;;;;;;;;;23.75;21.00;;;;;12.59;100.00;102517.72;6370605;22;45592;-92
2022/02/28 10:45:47;;;;;;;;;18.25;18.25;;;;;12.55;100.00;102502.56;6367955;22;47362;-93
2022/02/28 10:48:13;;;;;;;;;27.00;21.50;;;;;12.60;100.00;102501.13;6366552;22;45474;-92
2022/02/28 10:50:40;;;;;;;;;24.75;22.75;;;;;12.65;100.00;102506.69;6367692;22;45361;-92
2022/02/28 10:53:22;;;;;;;;;22.50;22.50;;;;;12.78;100.00;102521.59;6366493;22;45598;-91
2022/02/28 10:55:49;;;;;;;;;22.25;19.00;;;;;12.81;100.00;102524.38;6367826;22;45378;-89
2022/02/28 10:58:18;;;;;;;;;21.00;19.00;;;;;12.87;100.00;102522.16;6366143;22;45338;-90
2022/02/28 11:00:57;;;;;;;;;21.75;19.00;;;;;13.00;100.00;102523.88;6363818;22;45215;-91
2022/02/28 11:03:24;;;;;;;;;19.75;18.50;;;;;12.96;100.00;102517.47;6364290;22;45300;-90
2022/02/28 11:05:58;;;;;;;;;23.75;21.75;;;;;13.09;100.00;102512.97;6363483;22;46273;-91
2022/02/28 11:08:25;;;;;;;;;22.50;20.50;;;;;13.12;100.00;102520.19;6374323;22;45351;-91
2022/02/28 11:10:52;;;;;;;;;24.00;19.25;;;;;13.17;100.00;102524.94;6363790;22;45236;-91
2022/02/28 11:13:18;;;;;;;;;19.50;13.50;;;;;13.21;100.00;102515.50;6367294;22;45235;-92
2022/02/28 11:15:44;;;;;;;;;16.25;14.25;;;;;13.28;100.00;102514.16;6363551;22;46907;-92
2022/02/28 11:18:12;;;;;;;;;20.75;18.50;;;;;13.40;100.00;102520.19;6364220;22;45350;-92
2022/02/28 11:20:39;;;;;;;;;24.75;22.00;;;;;13.45;100.00;102517.84;6364402;22;45293;-92
2022/02/28 11:23:04;;;;;;;;;22.75;18.50;;;;;13.44;100.00;102508.13;6366653;22;45389;-91
2022/02/28 11:25:30;;;;;;;;;23.25;18.25;;;;;13.58;100.00;102516.00;6364016;22;47526;-92
2022/02/28 11:27:58;;;;;;;;;23.50;19.25;;;;;13.61;100.00;102506.53;6364299;22;45420;-92
2022/02/28 11:30:26;;;;;;;;;25.25;20.00;;;;;13.71;100.00;102504.50;6364216;22;45267;-91
2022/02/28 11:32:57;;;;;;;;;26.00;19.75;;;;;13.81;100.00;102512.13;6363822;22;45366;-91
2022/02/28 11:35:37;;;;;;;;;23.75;20.50;;;;;13.87;100.00;102508.94;6365471;22;46007;-91
2022/02/28 11:38:05;;;;;;;;;26.50;19.00;;;;;13.88;100.00;102507.22;6364997;22;45232;-93
2022/02/28 11:40:33;;;;;;;;;28.50;21.50;;;;;13.87;100.00;102503.66;6363563;22;45260;-93
2022/02/28 11:43:22;;;;;;;;;23.50;19.50;;;;;13.94;100.00;102499.69;6361653;22;45235;-92
2022/02/28 11:46:06;;;;;;;;;23.50;22.25;;;;;14.06;100.00;102503.03;6362986;22;48221;-93
2022/02/28 11:48:40;;;;;;;;;23.00;19.00;;;;;14.08;100.00;102488.19;6363777;22;45374;-92
2022/02/28 11:51:29;;;;;;;;;22.75;20.00;;;;;14.15;100.00;102499.09;6365289;22;45557;-92
2022/02/28 11:54:03;;;;;;;;;23.75;21.25;;;;;14.12;100.00;102480.47;6356710;22;45330;-93
2022/02/28 11:56:34;;;;;;;;;19.00;19.00;;;;;14.21;100.00;102486.28;6361763;22;47654;-93
2022/02/28 11:59:14;;;;;;;;;20.75;19.75;;;;;14.25;100.00;102488.25;6365731;22;45255;-92
2022/02/28 12:01:41;;;;;;;;;24.00;20.00;;;;;14.26;100.00;102475.97;6363640;22;45326;-92
2022/02/28 12:04:07;;;;;;;;;19.50;16.25;;;;;14.30;100.00;102473.59;6363663;22;45307;-92
2022/02/28 12:06:54;;;;;;;;;17.25;17.25;;;;;14.52;100.00;102469.56;6362976;22;48245;-93
2022/02/28 12:09:32;;;;;;;;;19.00;16.00;;;;;14.58;100.00;102463.72;6363677;22;45291;-92
2022/02/28 12:12:27;;;;;;;;;20.67;18.67;;;;;14.61;100.00;102460.34;6361815;22;45401;-93
2022/02/28 12:15:02;;;;;;;;;24.75;18.00;;;;;14.65;100.00;102451.75;6365991;22;45310;-92
2022/02/28 12:17:39;;;;;;;;;19.75;15.50;;;;;14.71;100.00;102446.81;6362939;22;47160;-92
2022/02/28 12:20:28;;;;;;;;;13.50;13.50;;;;;14.78;100.00;102450.69;6365508;22;45338;-92
2022/02/28 12:23:08;;;;;;;;;18.75;15.00;;;;;14.78;100.00;102450.69;6362514;22;45245;-92
2022/02/28 12:25:46;;;;;;;;;22.50;19.75;;;;;14.82;100.00;102435.91;6362540;22;45295;-91
2022/02/28 12:28:25;;;;;;;;;18.00;14.00;;;;;14.87;100.00;102436.22;6363265;22;48391;-92
2022/02/28 12:31:00;;;;;;;;;16.33;14.33;;;;;14.87;100.00;102426.50;6364525;22;45382;-92
2022/02/28 12:33:34;;;;;;;;;16.00;15.00;;;;;14.99;100.00;102438.59;6376730;22;45550;-93
2022/02/28 12:36:16;;;;;;;;;13.33;13.33;;;;;14.93;100.00;102428.59;6365061;22;45237;-93
2022/02/28 12:38:58;;;;;;;;;15.00;13.33;;;;;15.02;100.00;102426.47;6366125;22;45180;-92
2022/02/28 12:41:25;;;;;;;;;14.00;10.67;;;;;15.04;100.00;102431.81;6363981;22;45364;-94
2022/02/28 12:43:52;;;;;;;;;13.50;11.25;;;;;15.12;100.00;102421.66;6363815;22;45244;-92
2022/02/28 12:46:29;;;;;;;;;13.67;12.33;;;;;15.15;100.00;102414.78;6366443;22;45586;-90
2022/02/28 12:48:54;;;;;;;;;12.67;10.67;;;;;15.12;100.00;102411.09;6366812;22;46001;-91
2022/02/28 12:51:26;;;;;;;;;18.50;13.75;;;;;15.23;100.00;102411.66;6368795;22;44581;-91
2022/02/28 12:54:03;;;;;;;;;14.50;14.00;;;;;15.26;100.00;102404.78;6365030;22;45266;-91
2022/02/28 12:56:29;;;;;;;;;21.50;17.00;;;;;15.23;100.00;102396.69;6398017;22;45533;-90
2022/02/28 12:58:54;;;;;;;;;19.00;15.75;;;;;15.28;100.00;102397.81;6392294;22;47110;-90
2022/02/28 13:01:29;;;;;;;;;17.50;15.50;;;;;15.47;100.00;102406.72;6397377;22;45631;-92
2022/02/28 13:04:06;;;;;;;;;16.67;14.67;;;;;15.52;100.00;102402.59;6400193;22;45243;-91
2022/02/28 13:06:35;;;;;;;;;14.33;14.33;;;;;15.51;100.00;102394.59;6392534;22;45530;-90
2022/02/28 13:09:14;;;;;;;;;16.33;14.67;;;;;15.61;100.00;102393.31;6375040;22;46163;-92
2022/02/28 13:11:45;;;;;;;;;13.67;12.33;;;;;15.67;100.00;102390.97;6363963;22;45256;-93
2022/02/28 13:14:12;;;;;;;;;15.33;15.33;;;;;15.62;100.00;102382.78;6370705;22;45290;-92
2022/02/28 13:16:40;;;;;;;;;20.33;19.33;;;;;15.66;100.00;102388.25;6367734;22;45253;-93
2022/02/28 13:19:13;;;;;;;;;19.00;15.00;;;;;15.67;100.00;102383.00;6366082;22;45443;-92
2022/02/28 13:21:41;;;;;;;;;15.00;13.67;;;;;15.73;100.00;102382.44;6363253;22;45320;-92
2022/02/28 13:24:10;;;;;;;;;14.33;12.67;;;;;15.75;100.00;102378.09;6364488;22;45370;-92
2022/02/28 13:26:37;;;;;;;;;15.67;14.00;;;;;15.76;100.00;102385.22;6364115;22;45465;-92
2022/02/28 13:29:04;;;;;;;;;17.00;13.00;;;;;15.79;100.00;102377.44;6363361;22;47619;-92
2022/02/28 13:31:33;;;;;;;;;16.00;11.67;;;;;15.85;100.00;102383.03;6364326;22;45252;-92
2022/02/28 13:34:00;;;;;;;;;15.00;13.67;;;;;15.90;100.00;102371.78;6363203;22;45394;-92
2022/02/28 13:36:34;;;;;;;;;17.67;14.00;;;;;16.08;100.00;102377.13;6364674;22;45314;-92
2022/02/28 13:38:59;;;;;;;;;19.67;18.33;;;;;16.07;100.00;102380.59;6366799;22;45360;-93
2022/02/28 13:41:26;;;;;;;;;19.67;17.00;;;;;16.16;100.00;102377.47;6362606;22;45308;-92
2022/02/28 13:43:52;;;;;;;;;12.67;12.33;;;;;16.17;100.00;102373.97;6365260;22;45339;-92
2022/02/28 13:46:17;;;;;;;;;21.33;17.67;;;;;16.23;100.00;102371.66;6366428;22;45239;-92
2022/02/28 13:48:54;;;;;;;;;18.00;15.00;;;;;16.42;100.00;102367.19;6366214;22;45315;-92
2022/02/28 13:51:19;;;;;;;;;17.00;17.00;;;;;16.46;100.00;102369.19;6390857;22;45970;-92
2022/02/28 13:53:47;;;;;;;;;20.33;15.33;;;;;16.64;100.00;102377.09;6365405;22;45236;-93
2022/02/28 13:56:31;;;;;;;;;18.25;14.00;;;;;16.83;100.00;102374.34;6365135;22;45307;-92
2022/02/28 13:59:14;;;;;;;;;17.33;14.67;;;;;16.94;100.00;102374.84;6392754;22;46934;-92
2022/02/28 14:01:56;;;;;;;;;17.33;16.67;;;;;17.05;100.00;102367.38;6366538;22;45277;-92
2022/02/28 14:04:31;;;;;;;;;16.33;15.33;;;;;17.23;100.00;102369.06;6364004;22;45251;-92
2022/02/28 14:06:58;;;;;;;;;17.33;14.67;;;;;17.31;100.00;102359.69;6364993;22;45193;-92
2022/02/28 14:09:29;;;;;;;;;16.33;15.33;;;;;17.49;100.00;102358.66;6366367;22;45996;-90
2022/02/28 14:11:55;;;;;;;;;16.33;16.33;;;;;17.56;100.00;102357.16;6365193;22;45341;-91
2022/02/28 14:14:22;;;;;;;;;16.00;14.00;;;;;17.72;100.00;102358.72;6365410;22;45272;-90
2022/02/28 14:17:07;;;;;;;;;18.00;14.33;;;;;17.90;100.00;102355.00;6366762;22;45533;-90
2022/02/28 14:19:38;;;;;;;;;13.00;12.33;;;;;18.01;100.00;102348.41;6369523;22;48963;-90
2022/02/28 14:22:10;;;;;;;;;16.33;13.00;;;;;18.09;100.00;102346.03;6372893;22;45332;-90
2022/02/28 14:24:53;;;;;;;;;18.33;16.00;;;;;18.25;100.00;102344.00;6375494;22;45252;-91
2022/02/28 14:27:31;;;;;;;;;13.33;13.33;;;;;18.37;100.00;102347.16;6372936;22;45209;-90
2022/02/28 14:30:06;;;;;;;;;17.67;17.67;;;;;18.67;100.00;102336.69;6364938;22;47274;-91
2022/02/28 14:32:32;;;;;;;;;11.67;11.67;;;;;19.03;100.00;102343.31;6364227;22;45326;-91
2022/02/28 14:34:57;;;;;;;;;12.00;12.00;;;;;19.19;100.00;102339.47;6367166;22;45407;-90
2022/02/28 14:37:24;;;;;;;;;13.00;11.67;;;;;19.14;100.00;102343.69;6364301;22;45680;-90
2022/02/28 14:39:50;;;;;;;;;16.33;14.33;;;;;19.10;100.00;102340.00;6367054;22;45379;-90
2022/02/28 14:42:15;;;;;;;;;15.00;12.00;;;;;19.10;100.00;102343.56;6364187;22;45295;-91
2022/02/28 14:44:40;;;;;;;;;19.00;15.67;;;;;19.06;100.00;102349.66;6364840;22;45368;-91
2022/02/28 14:47:06;;;;;;;;;16.33;14.33;;;;;18.92;100.00;102349.16;6390561;22;45361;-91
2022/02/28 14:49:32;;;;;;;;;388.25;385.75;;;;;18.74;100.00;102344.06;6366272;22;46082;-92
2022/02/28 14:51:58;;;;;;;;;16.75;11.50;;;;;18.58;100.00;102339.94;6366228;22;45335;-91
2022/02/28 14:54:23;;;;;;;;;17.00;13.33;;;;;18.46;100.00;102335.94;6364621;22;45345;-91
2022/02/28 14:56:49;;;;;;;;;13.00;13.00;;;;;18.30;100.00;102340.69;6363274;22;45340;-92
2022/02/28 14:59:14;;;;;;;;;20.00;15.67;;;;;18.13;100.00;102325.78;6366297;22;46408;-91
2022/02/28 15:01:40;;;;;;;;;16.33;15.67;;;;;18.06;100.00;102328.22;6366273;22;45206;-92
2022/02/28 15:04:12;;;;;;;;;17.00;14.00;;;;;17.98;100.00;102330.56;6367480;22;45301;-91
2022/02/28 15:06:38;;;;;;;;;16.67;14.67;;;;;17.90;100.00;102332.00;6390786;22;45461;-91
2022/02/28 15:09:03;;;;;;;;;13.00;11.67;;;;;17.81;100.00;102332.53;6392437;22;47220;-92
2022/02/28 15:11:28;;;;;;;;;14.33;12.67;;;;;17.73;100.00;102328.69;6363223;22;45309;-92
2022/02/28 15:13:54;;;;;;;;;15.00;11.67;;;;;17.66;100.00;102330.16;6368849;22;45257;-91
2022/02/28 15:16:19;;;;;;;;;20.33;16.00;;;;;17.57;100.00;102340.41;6371755;22;45172;-92
2022/02/28 15:18:45;;;;;;;;;13.00;13.00;;;;;17.46;100.00;102334.63;6370307;22;48213;-91
2022/02/28 15:21:10;;;;;;;;;17.00;11.00;;;;;17.37;100.00;102336.06;6371647;22;45239;-91
2022/02/28 15:23:36;;;;;;;;;15.00;12.33;;;;;17.25;100.00;102332.88;6368190;22;45289;-91
2022/02/28 15:26:01;;;;;;;;;11.67;9.67;;;;;17.15;100.00;102331.53;6389198;22;45729;-91
2022/02/28 15:28:27;;;;;;;;;16.33;16.33;;;;;17.03;100.00;102345.19;6364024;22;46935;-92
2022/02/28 15:30:52;;;;;;;;;15.67;13.00;;;;;16.89;100.00;102342.81;6390188;22;45488;-91
2022/02/28 15:33:18;;;;;;;;;16.00;13.33;;;;;16.80;100.00;102338.00;6391385;22;45274;-92
2022/02/28 15:35:43;;;;;;;;;17.00;15.33;;;;;16.66;100.00;102334.72;6366823;22;45306;-91
2022/02/28 15:38:10;;;;;;;;;13.67;11.33;;;;;16.57;100.00;102339.63;6366146;22;56503;-92
2022/02/28 15:40:36;;;;;;;;;13.67;13.67;;;;;16.47;100.00;102339.16;6364691;22;45622;-91
2022/02/28 15:43:01;;;;;;;;;16.67;14.67;;;;;16.35;100.00;102336.88;6364814;22;45310;-91
2022/02/28 15:45:27;;;;;;;;;16.33;15.00;;;;;16.28;100.00;102329.47;6390528;22;45489;-91
2022/02/28 15:47:52;;;;;;;;;20.33;12.67;;;;;16.20;100.00;102323.81;6390938;22;47144;-91
2022/02/28 15:50:18;;;;;;;;;14.33;12.00;;;;;16.17;100.00;102335.16;6363943;22;45331;-91
2022/02/28 15:52:45;;;;;;;;;16.33;13.00;;;;;16.06;100.00;102326.69;6365658;22;45223;-92
2022/02/28 15:55:11;;;;;;;;;16.00;12.33;;;;;15.97;100.00;102320.94;6366774;22;45248;-91
2022/02/28 15:57:36;;;;;;;;;16.33;13.67;;;;;15.92;100.00;102330.41;6364602;22;46014;-92
2022/02/28 16:00:04;;;;;;;;;18.33;12.00;;;;;15.90;100.00;102318.81;6363064;22;45617;-92
2022/02/28 16:02:30;;;;;;;;;16.67;14.67;;;;;15.82;100.00;102318.44;6366873;22;45360;-91
2022/02/28 16:04:55;;;;;;;;;15.00;13.50;;;;;15.80;100.00;102318.34;6363997;22;45590;-92
2022/02/28 16:07:21;;;;;;;;;14.67;13.00;;;;;15.85;100.00;102321.22;6363971;22;47356;-92
2022/02/28 16:09:46;;;;;;;;;14.00;13.00;;;;;15.79;100.00;102310.34;6366982;22;45261;-91
2022/02/28 16:12:12;;;;;;;;;15.33;11.67;;;;;15.74;100.00;102313.69;6364766;22;45356;-92
2022/02/28 16:14:37;;;;;;;;;16.67;15.67;;;;;15.72;100.00;102314.44;6363893;22;45296;-92
2022/02/28 16:17:04;;;;;;;;;16.00;15.00;;;;;15.69;100.00;102312.56;6366380;22;46395;-92
2022/02/28 16:19:29;;;;;;;;;15.00;13.33;;;;;15.66;100.00;102303.53;6365963;22;45176;-91
2022/02/28 16:21:55;;;;;;;;;15.00;15.00;;;;;15.63;100.00;102309.59;6363939;22;45266;-91
2022/02/28 16:24:21;;;;;;;;;12.33;12.33;;;;;15.62;100.00;102306.03;6365576;22;45435;-92
2022/02/28 16:26:47;;;;;;;;;15.67;12.67;;;;;15.59;100.00;102300.59;6362151;22;47315;-92
2022/02/28 16:29:13;;;;;;;;;16.00;14.33;;;;;15.57;100.00;102296.03;6365727;22;45205;-91
2022/02/28 16:31:38;;;;;;;;;15.67;15.67;;;;;15.53;100.00;102290.63;6363945;22;45316;-91
2022/02/28 16:34:04;;;;;;;;;16.67;15.00;;;;;15.50;100.00;102292.19;6365700;22;45269;-92
2022/02/28 16:36:30;;;;;;;;;18.33;15.33;;;;;15.48;100.00;102291.22;6365003;22;45474;-90
2022/02/28 16:38:57;;;;;;;;;15.67;12.00;;;;;15.47;100.00;102302.63;6364968;22;45353;-92
2022/02/28 16:41:22;;;;;;;;;19.33;14.33;;;;;15.37;100.00;102294.22;6361646;22;45399;-92
2022/02/28 16:43:51;;;;;;;;;14.67;13.33;;;;;15.35;100.00;102294.97;6363473;22;45335;-92
2022/02/28 16:46:18;;;;;;;;;17.33;14.67;;;;;15.26;100.00;102288.38;6365287;22;46263;-91
2022/02/28 16:48:43;;;;;;;;;17.33;14.67;;;;;15.21;100.00;102283.69;6363331;22;45401;-92
2022/02/28 16:51:08;;;;;;;;;15.33;15.33;;;;;15.15;100.00;102284.31;6364854;22;45722;-91
2022/02/28 16:53:34;;;;;;;;;14.67;12.33;;;;;15.07;100.00;102284.81;6363534;22;45552;-92
2022/02/28 16:55:59;;;;;;;;;18.67;15.67;;;;;15.04;100.00;102281.09;6361110;22;46916;-92
2022/02/28 16:58:24;;;;;;;;;16.00;12.25;;;;;14.99;100.00;102286.16;6362467;22;45315;-91
2022/02/28 17:00:50;;;;;;;;;17.33;17.00;;;;;14.92;100.00;102289.31;6365059;22;45306;-91
2022/02/28 17:03:15;;;;;;;;;13.67;12.33;;;;;14.87;100.00;102286.41;6365003;22;45227;-91
2022/02/28 17:05:41;;;;;;;;;17.67;14.67;;;;;14.85;100.00;102288.03;6364998;22;46016;-91
2022/02/28 17:08:07;;;;;;;;;16.67;16.00;;;;;14.75;100.00;102284.91;6362930;22;45412;-91
2022/02/28 17:10:34;;;;;;;;;17.00;13.33;;;;;14.72;100.00;102283.81;6363148;22;45288;-91
2022/02/28 17:12:59;;;;;;;;;11.67;10.00;;;;;14.65;100.00;102293.19;6361918;22;45391;-92
2022/02/28 17:15:24;;;;;;;;;18.33;15.33;;;;;14.59;100.00;102287.56;6365544;22;46549;-91
2022/02/28 17:17:50;;;;;;;;;10.33;8.67;;;;;14.58;100.00;102293.69;6366393;22;45305;-92
2022/02/28 17:20:20;;;;;;;;;14.33;13.00;;;;;14.60;100.00;102294.66;6364783;22;45356;-91
2022/02/28 17:22:46;;;;;;;;;16.67;16.67;;;;;14.50;100.00;102299.47;6364011;22;45548;-91
2022/02/28 17:25:12;;;;;;;;;18.67;15.00;;;;;14.51;100.00;102310.91;6363345;22;47046;-91
2022/02/28 17:27:38;;;;;;;;;15.00;12.25;;;;;14.49;100.00;102305.56;6364406;22;45426;-92
2022/02/28 17:30:04;;;;;;;;;20.75;17.25;;;;;14.40;100.00;102308.63;6364270;22;45316;-90
2022/02/28 17:32:30;;;;;;;;;16.00;12.33;;;;;14.35;100.00;102311.84;6366155;22;45363;-91
2022/02/28 17:34:55;;;;;;;;;18.00;15.67;;;;;14.32;100.00;102314.31;6363708;22;46104;-92
2022/02/28 17:37:20;;;;;;;;;17.67;13.00;;;;;14.23;100.00;102302.41;6364960;22;45394;-91
2022/02/28 17:39:46;;;;;;;;;15.67;14.00;;;;;14.19;100.00;102310.97;6366487;22;45183;-92
2022/02/28 17:42:16;;;;;;;;;15.33;13.67;;;;;14.22;100.00;102318.16;6365518;22;45302;-96
2022/02/28 17:48:24;;;;;;;;;17.00;14.00;;;;;14.01;100.00;102327.63;6239880;22;45472;-94
2022/02/28 17:50:55;;;;;;;;;21.00;18.00;;;;;13.92;100.00;102324.44;6213381;22;45395;-95
2022/02/28 17:53:20;;;;;;;;;22.50;17.25;;;;;13.81;100.00;102316.81;6239535;22;45583;-94
2022/02/28 17:55:47;;;;;;;;;20.00;17.00;;;;;13.91;100.00;102336.75;6212364;22;46854;-94
2022/02/28 17:58:14;;;;;;;;;15.00;15.00;;;;;13.84;100.00;102331.91;6213056;22;45460;-94
2022/02/28 18:00:41;;;;;;;;;11.33;11.33;;;;;13.71;100.00;102317.13;6213487;22;45321;-95
2022/02/28 18:03:09;;;;;;;;;19.33;15.67;;;;;13.76;100.00;102326.19;6213712;22;45488;-94
2022/02/28 18:05:36;;;;;;;;;16.00;15.00;;;;;13.68;100.00;102332.78;6213814;22;47107;-94
2022/02/28 18:08:01;;;;;;;;;17.00;14.00;;;;;13.63;100.00;102336.03;6214410;22;45493;-92
2022/02/28 18:10:27;;;;;;;;;22.75;20.25;;;;;13.54;100.00;102324.91;6216804;22;45493;-95
2022/02/28 18:12:52;;;;;;;;;19.50;15.25;;;;;13.43;100.00;102313.72;6227801;22;45393;-95
2022/02/28 18:15:19;;;;;;;;;24.50;18.50;;;;;13.46;100.00;102326.19;6240264;22;46989;-95
2022/02/28 18:17:47;;;;;;;;;22.75;16.50;;;;;13.35;100.00;102313.28;6242846;22;45051;-95
2022/02/28 18:20:12;;;;;;;;;20.50;15.00;;;;;13.38;100.00;102325.72;6240899;22;44824;-95
2022/02/28 18:22:38;;;;;;;;;20.50;17.50;;;;;13.34;100.00;102329.03;6262201;22;44865;-94
2022/02/28 18:25:07;;;;;;;;;17.25;14.00;;;;;13.35;100.00;102325.56;6366422;22;48171;-96
2022/02/28 18:27:33;;;;;;;;;19.75;17.00;;;;;13.35;100.00;102344.91;6336834;22;45406;-95
2022/02/28 18:29:59;;;;;;;;;16.50;15.00;;;;;13.25;100.00;102326.72;6366430;22;45467;-95
2022/02/28 18:32:37;;;;;;;;;14.00;11.25;;;;;13.36;100.00;102336.22;6393003;22;45465;-96
2022/02/28 18:35:05;;;;;;;;;21.00;17.50;;;;;13.32;100.00;102347.41;6365916;22;46829;-94
2022/02/28 18:37:30;;;;;;;;;18.75;16.00;;;;;13.22;100.00;102343.28;6392512;22;45307;-95
2022/02/28 18:39:56;;;;;;;;;20.00;16.25;;;;;13.22;100.00;102347.66;6392706;22;45249;-95
2022/02/28 18:42:22;;;;;;;;;23.25;18.25;;;;;13.21;100.00;102351.09;6391334;22;45351;-94
2022/02/28 18:44:49;;;;;;;;;20.00;18.75;;;;;13.09;100.00;102346.91;6367304;22;47949;-95
2022/02/28 18:47:18;;;;;;;;;24.00;18.50;;;;;13.08;100.00;102339.81;6392919;22;45382;-95
2022/02/28 18:49:43;;;;;;;;;19.75;19.25;;;;;12.99;100.00;102352.44;6367000;22;45283;-95
2022/02/28 18:52:09;;;;;;;;;27.25;21.50;;;;;13.08;100.00;102374.09;6365995;22;45248;-95
2022/02/28 18:54:36;;;;;;;;;14.75;10.25;;;;;12.93;100.00;102347.69;6392826;22;48140;-94
2022/02/28 18:57:04;;;;;;;;;22.75;19.00;;;;;12.87;100.00;102350.88;6365037;22;45205;-93
2022/02/28 18:59:30;;;;;;;;;17.50;15.75;;;;;12.84;100.00;102345.41;6366310;22;45406;-95
2022/02/28 19:01:57;;;;;;;;;18.00;17.00;;;;;12.93;100.00;102355.63;6366110;22;45379;-95
2022/02/28 19:04:25;;;;;;;;;17.50;14.00;;;;;12.85;100.00;102340.25;6366022;22;47146;-95
2022/02/28 19:06:50;;;;;;;;;20.25;18.25;;;;;12.90;100.00;102347.50;6391859;22;45327;-95
2022/02/28 19:09:17;;;;;;;;;19.50;15.50;;;;;12.89;100.00;102346.59;6366230;22;45260;-94
2022/02/28 19:11:45;;;;;;;;;20.50;19.00;;;;;12.85;100.00;102341.97;6366003;22;45343;-95